Edmonton Stony Plain Alta., Canada
Current Conditions -  °F | °C
As of 7:00 PM on Thursday 27 Nov 2014 (Local Time) from CWSE Reporting Station
Light Snow Light Snow  
Wind Chill: -16°   Ceiling: 800
Heat Index: -1°   Visibility: 0.75mi
Dew Point: -5°   Wind: 8mph
Humidity: 84%   Direction: 30°NNE
Pressure: 29.93"   Gusts: NA
Location:  53.53°N, 114.1°W
Report Text: CWSE 280200Z 03007KT 3/4SM -SN DRSN VV008 M18/M20 A2993 RMK SLP214 LAST OBS/NEXT 281100Z SN COV/MUCH LOOSE /S02/ T11841205 WSI/SWOB
Loading
Personal Weather Stations






























Interactive Weather Map New forecast layout! Learn more

10-Day Weather Forecast

Advertisements
Track Severe Weather on mobile